sensor_id;sensor_type;location;lat;lon;timestamp;pressure;altitude;pressure_sealevel;temperature;humidity
74960;BME280;63518;49.572;1.106;2023-03-17T00:01:39;98635.78;;;9.83;65.68
74960;BME280;63518;49.572;1.106;2023-03-17T00:04:10;98647.00;;;9.73;66.03
74960;BME280;63518;49.572;1.106;2023-03-17T00:06:37;98642.19;;;9.78;67.44
74960;BME280;63518;49.572;1.106;2023-03-17T00:09:06;98640.44;;;9.68;67.02
74960;BME280;63518;49.572;1.106;2023-03-17T00:11:33;98644.94;;;9.64;67.81
74960;BME280;63518;49.572;1.106;2023-03-17T00:14:00;98639.00;;;9.57;67.58
74960;BME280;63518;49.572;1.106;2023-03-17T00:16:35;98649.31;;;9.65;66.28
74960;BME280;63518;49.572;1.106;2023-03-17T00:19:03;98657.56;;;9.65;66.85
74960;BME280;63518;49.572;1.106;2023-03-17T00:21:31;98654.09;;;9.60;66.58
74960;BME280;63518;49.572;1.106;2023-03-17T00:23:58;98661.03;;;9.71;66.96
74960;BME280;63518;49.572;1.106;2023-03-17T00:26:26;98656.94;;;9.68;66.87
74960;BME280;63518;49.572;1.106;2023-03-17T00:28:53;98653.91;;;9.84;67.34
74960;BME280;63518;49.572;1.106;2023-03-17T00:31:21;98653.09;;;10.11;65.48
74960;BME280;63518;49.572;1.106;2023-03-17T00:33:49;98649.94;;;10.17;65.65
74960;BME280;63518;49.572;1.106;2023-03-17T00:36:19;98646.59;;;10.20;64.62
74960;BME280;63518;49.572;1.106;2023-03-17T00:38:46;98656.16;;;10.50;63.55
74960;BME280;63518;49.572;1.106;2023-03-17T00:41:14;98657.81;;;9.96;66.47
74960;BME280;63518;49.572;1.106;2023-03-17T00:43:41;98661.47;;;9.92;66.20
74960;BME280;63518;49.572;1.106;2023-03-17T00:46:12;98658.19;;;10.17;65.30
74960;BME280;63518;49.572;1.106;2023-03-17T00:48:40;98659.72;;;10.10;66.51
74960;BME280;63518;49.572;1.106;2023-03-17T00:51:08;98657.69;;;10.15;65.67
74960;BME280;63518;49.572;1.106;2023-03-17T00:53:35;98660.94;;;10.17;66.07
74960;BME280;63518;49.572;1.106;2023-03-17T00:56:02;98663.50;;;10.14;66.02
74960;BME280;63518;49.572;1.106;2023-03-17T00:58:30;98662.50;;;10.23;64.60
74960;BME280;63518;49.572;1.106;2023-03-17T01:00:58;98662.38;;;10.42;65.07
74960;BME280;63518;49.572;1.106;2023-03-17T01:03:25;98666.06;;;10.51;64.57
74960;BME280;63518;49.572;1.106;2023-03-17T01:05:52;98661.47;;;10.47;64.66
74960;BME280;63518;49.572;1.106;2023-03-17T01:08:20;98662.91;;;10.44;64.46
74960;BME280;63518;49.572;1.106;2023-03-17T01:10:48;98663.00;;;10.53;64.60
74960;BME280;63518;49.572;1.106;2023-03-17T01:13:15;98651.50;;;11.10;62.73
74960;BME280;63518;49.572;1.106;2023-03-17T01:15:43;98635.03;;;10.82;63.11
74960;BME280;63518;49.572;1.106;2023-03-17T01:18:11;98634.63;;;11.11;62.40
74960;BME280;63518;49.572;1.106;2023-03-17T01:20:38;98625.22;;;10.67;64.01
74960;BME280;63518;49.572;1.106;2023-03-17T01:23:09;98630.69;;;10.45;64.26
74960;BME280;63518;49.572;1.106;2023-03-17T01:25:38;98635.44;;;10.25;64.89
74960;BME280;63518;49.572;1.106;2023-03-17T01:28:05;98641.28;;;10.10;65.46
74960;BME280;63518;49.572;1.106;2023-03-17T01:30:33;98646.69;;;10.15;65.47
74960;BME280;63518;49.572;1.106;2023-03-17T01:33:01;98647.63;;;9.97;67.27
74960;BME280;63518;49.572;1.106;2023-03-17T01:35:28;98638.00;;;10.22;66.12
74960;BME280;63518;49.572;1.106;2023-03-17T01:37:55;98639.34;;;10.24;65.18
74960;BME280;63518;49.572;1.106;2023-03-17T01:40:23;98631.56;;;10.27;66.09
74960;BME280;63518;49.572;1.106;2023-03-17T01:42:58;98635.16;;;10.13;66.76
74960;BME280;63518;49.572;1.106;2023-03-17T01:48:12;98633.94;;;10.33;64.44
74960;BME280;63518;49.572;1.106;2023-03-17T01:50:42;98634.31;;;10.27;65.24
74960;BME280;63518;49.572;1.106;2023-03-17T01:53:10;98633.63;;;10.07;66.19
74960;BME280;63518;49.572;1.106;2023-03-17T01:55:37;98640.47;;;9.96;65.08
74960;BME280;63518;49.572;1.106;2023-03-17T01:58:03;98632.22;;;9.96;65.64
74960;BME280;63518;49.572;1.106;2023-03-17T02:00:31;98626.00;;;9.90;66.15
74960;BME280;63518;49.572;1.106;2023-03-17T02:02:58;98638.13;;;9.89;65.90
74960;BME280;63518;49.572;1.106;2023-03-17T02:05:26;98637.81;;;9.77;67.09
74960;BME280;63518;49.572;1.106;2023-03-17T02:07:55;98637.81;;;9.77;66.41
74960;BME280;63518;49.572;1.106;2023-03-17T02:10:22;98625.78;;;10.01;66.82
74960;BME280;63518;49.572;1.106;2023-03-17T02:12:52;98624.78;;;9.96;65.59
74960;BME280;63518;49.572;1.106;2023-03-17T02:15:20;98619.56;;;9.81;65.67
74960;BME280;63518;49.572;1.106;2023-03-17T02:17:48;98608.25;;;9.83;65.70
74960;BME280;63518;49.572;1.106;2023-03-17T02:22:44;98607.31;;;9.60;67.03
74960;BME280;63518;49.572;1.106;2023-03-17T02:25:15;98611.97;;;9.46;67.97
74960;BME280;63518;49.572;1.106;2023-03-17T02:27:44;98605.59;;;9.50;67.58
74960;BME280;63518;49.572;1.106;2023-03-17T02:30:12;98576.63;;;9.39;68.84
74960;BME280;63518;49.572;1.106;2023-03-17T02:32:40;98602.72;;;9.42;68.28
74960;BME280;63518;49.572;1.106;2023-03-17T02:35:07;98604.66;;;9.41;67.94
74960;BME280;63518;49.572;1.106;2023-03-17T02:37:34;98588.97;;;9.42;68.50
74960;BME280;63518;49.572;1.106;2023-03-17T02:40:00;98581.16;;;9.49;68.01
74960;BME280;63518;49.572;1.106;2023-03-17T02:42:29;98589.78;;;9.56;67.29
74960;BME280;63518;49.572;1.106;2023-03-17T02:44:56;98587.16;;;9.51;67.16
74960;BME280;63518;49.572;1.106;2023-03-17T02:47:23;98574.31;;;9.60;67.42
74960;BME280;63518;49.572;1.106;2023-03-17T02:49:49;98574.41;;;9.41;67.36
74960;BME280;63518;49.572;1.106;2023-03-17T02:52:16;98582.81;;;9.31;67.75
74960;BME280;63518;49.572;1.106;2023-03-17T02:54:43;98576.19;;;9.32;68.61
74960;BME280;63518;49.572;1.106;2023-03-17T02:57:10;98567.06;;;9.36;68.26
74960;BME280;63518;49.572;1.106;2023-03-17T02:59:37;98574.69;;;9.39;68.55
74960;BME280;63518;49.572;1.106;2023-03-17T03:02:03;98568.78;;;9.46;68.43
74960;BME280;63518;49.572;1.106;2023-03-17T03:04:31;98559.44;;;9.75;67.78
74960;BME280;63518;49.572;1.106;2023-03-17T03:06:58;98543.66;;;9.66;66.30
74960;BME280;63518;49.572;1.106;2023-03-17T03:09:25;98532.41;;;9.22;68.64
74960;BME280;63518;49.572;1.106;2023-03-17T03:11:53;98534.84;;;9.09;68.88
74960;BME280;63518;49.572;1.106;2023-03-17T03:14:20;98551.84;;;9.11;69.09
74960;BME280;63518;49.572;1.106;2023-03-17T03:16:47;98561.75;;;9.26;69.69
74960;BME280;63518;49.572;1.106;2023-03-17T03:19:14;98564.53;;;9.67;66.39
74960;BME280;63518;49.572;1.106;2023-03-17T03:21:41;98559.94;;;9.77;67.16
74960;BME280;63518;49.572;1.106;2023-03-17T03:24:08;98566.25;;;9.63;68.22
74960;BME280;63518;49.572;1.106;2023-03-17T03:26:36;98544.72;;;9.24;69.25
74960;BME280;63518;49.572;1.106;2023-03-17T03:29:03;98545.03;;;9.09;68.53
74960;BME280;63518;49.572;1.106;2023-03-17T03:31:31;98550.00;;;9.07;69.58
74960;BME280;63518;49.572;1.106;2023-03-17T03:33:57;98538.69;;;8.95;70.38
74960;BME280;63518;49.572;1.106;2023-03-17T03:36:25;98553.78;;;9.11;71.03
74960;BME280;63518;49.572;1.106;2023-03-17T03:38:53;98554.03;;;8.96;71.10
74960;BME280;63518;49.572;1.106;2023-03-17T03:41:20;98557.00;;;8.99;70.70
74960;BME280;63518;49.572;1.106;2023-03-17T03:43:47;98557.66;;;9.10;69.42
74960;BME280;63518;49.572;1.106;2023-03-17T03:46:15;98554.84;;;8.96;70.45
74960;BME280;63518;49.572;1.106;2023-03-17T03:48:42;98534.50;;;8.97;71.17
74960;BME280;63518;49.572;1.106;2023-03-17T03:51:09;98548.44;;;8.87;71.36
74960;BME280;63518;49.572;1.106;2023-03-17T03:53:38;98553.25;;;8.76;72.09
74960;BME280;63518;49.572;1.106;2023-03-17T03:56:05;98565.66;;;8.74;71.85
74960;BME280;63518;49.572;1.106;2023-03-17T03:58:32;98541.78;;;8.55;73.15
74960;BME280;63518;49.572;1.106;2023-03-17T04:01:03;98571.59;;;8.62;71.63
74960;BME280;63518;49.572;1.106;2023-03-17T04:03:30;98548.00;;;8.42;73.96
74960;BME280;63518;49.572;1.106;2023-03-17T04:05:58;98568.31;;;8.60;72.34
74960;BME280;63518;49.572;1.106;2023-03-17T04:08:25;98574.94;;;8.59;72.06
74960;BME280;63518;49.572;1.106;2023-03-17T04:10:52;98576.34;;;8.56;72.22
74960;BME280;63518;49.572;1.106;2023-03-17T04:13:19;98594.69;;;8.42;72.22
74960;BME280;63518;49.572;1.106;2023-03-17T04:15:46;98582.06;;;8.22;72.44
74960;BME280;63518;49.572;1.106;2023-03-17T04:18:13;98592.59;;;8.53;72.66
74960;BME280;63518;49.572;1.106;2023-03-17T04:20:40;98600.25;;;8.56;71.90
74960;BME280;63518;49.572;1.106;2023-03-17T04:23:07;98600.03;;;8.52;73.04
74960;BME280;63518;49.572;1.106;2023-03-17T04:25:34;98590.25;;;8.46;72.06
74960;BME280;63518;49.572;1.106;2023-03-17T04:28:02;98579.53;;;8.45;72.88
74960;BME280;63518;49.572;1.106;2023-03-17T04:30:29;98590.59;;;8.58;72.35
74960;BME280;63518;49.572;1.106;2023-03-17T04:32:57;98578.03;;;8.52;72.56
74960;BME280;63518;49.572;1.106;2023-03-17T04:35:24;98566.53;;;8.88;70.12
74960;BME280;63518;49.572;1.106;2023-03-17T04:37:51;98561.72;;;8.42;72.62
74960;BME280;63518;49.572;1.106;2023-03-17T04:40:18;98581.94;;;8.33;71.88
74960;BME280;63518;49.572;1.106;2023-03-17T04:42:46;98569.53;;;8.35;73.67
74960;BME280;63518;49.572;1.106;2023-03-17T04:45:13;98577.09;;;8.43;72.01
74960;BME280;63518;49.572;1.106;2023-03-17T04:47:41;98579.31;;;8.41;73.66
74960;BME280;63518;49.572;1.106;2023-03-17T04:50:09;98575.75;;;8.41;72.79
74960;BME280;63518;49.572;1.106;2023-03-17T04:52:36;98561.97;;;8.27;73.07
74960;BME280;63518;49.572;1.106;2023-03-17T04:55:05;98552.16;;;8.21;73.82
74960;BME280;63518;49.572;1.106;2023-03-17T04:57:35;98566.72;;;8.40;73.32
74960;BME280;63518;49.572;1.106;2023-03-17T05:00:06;98557.72;;;8.35;72.85
74960;BME280;63518;49.572;1.106;2023-03-17T05:02:33;98566.84;;;8.49;71.52
74960;BME280;63518;49.572;1.106;2023-03-17T05:05:00;98573.03;;;8.22;72.93
74960;BME280;63518;49.572;1.106;2023-03-17T05:07:29;98569.22;;;8.18;73.72
74960;BME280;63518;49.572;1.106;2023-03-17T05:09:59;98567.44;;;8.27;72.42
74960;BME280;63518;49.572;1.106;2023-03-17T05:12:28;98569.88;;;7.91;73.64
74960;BME280;63518;49.572;1.106;2023-03-17T05:14:55;98585.31;;;7.82;73.99
74960;BME280;63518;49.572;1.106;2023-03-17T05:17:22;98571.00;;;8.09;73.94
74960;BME280;63518;49.572;1.106;2023-03-17T05:19:50;98572.78;;;8.18;72.97
74960;BME280;63518;49.572;1.106;2023-03-17T05:22:16;98549.56;;;8.11;71.69
74960;BME280;63518;49.572;1.106;2023-03-17T05:24:43;98557.78;;;8.11;73.55
74960;BME280;63518;49.572;1.106;2023-03-17T05:27:10;98567.66;;;8.12;73.23
74960;BME280;63518;49.572;1.106;2023-03-17T05:29:37;98564.56;;;8.18;72.52
74960;BME280;63518;49.572;1.106;2023-03-17T05:32:04;98556.38;;;8.13;72.69
74960;BME280;63518;49.572;1.106;2023-03-17T05:34:32;98558.91;;;8.10;73.00
74960;BME280;63518;49.572;1.106;2023-03-17T05:36:59;98564.00;;;7.97;74.45
74960;BME280;63518;49.572;1.106;2023-03-17T05:39:26;98578.47;;;8.03;74.73
74960;BME280;63518;49.572;1.106;2023-03-17T05:41:53;98566.75;;;7.97;74.15
74960;BME280;63518;49.572;1.106;2023-03-17T05:44:20;98554.44;;;8.51;72.00
74960;BME280;63518;49.572;1.106;2023-03-17T05:46:47;98547.06;;;8.84;70.24
74960;BME280;63518;49.572;1.106;2023-03-17T05:49:14;98533.34;;;8.84;68.72
74960;BME280;63518;49.572;1.106;2023-03-17T05:51:41;98518.09;;;8.92;70.87
74960;BME280;63518;49.572;1.106;2023-03-17T05:54:09;98516.63;;;8.48;70.62
74960;BME280;63518;49.572;1.106;2023-03-17T05:56:36;98498.97;;;8.36;70.60
74960;BME280;63518;49.572;1.106;2023-03-17T05:59:03;98491.22;;;8.56;70.24
74960;BME280;63518;49.572;1.106;2023-03-17T06:01:30;98489.91;;;8.68;71.03
74960;BME280;63518;49.572;1.106;2023-03-17T06:03:57;98490.31;;;8.80;68.89
74960;BME280;63518;49.572;1.106;2023-03-17T06:06:25;98484.00;;;8.61;70.60
74960;BME280;63518;49.572;1.106;2023-03-17T06:08:52;98493.19;;;8.70;71.17
74960;BME280;63518;49.572;1.106;2023-03-17T06:11:19;98495.06;;;8.23;71.73
74960;BME280;63518;49.572;1.106;2023-03-17T06:13:47;98515.16;;;7.99;73.07
74960;BME280;63518;49.572;1.106;2023-03-17T06:16:15;98518.06;;;8.08;74.16
74960;BME280;63518;49.572;1.106;2023-03-17T06:18:42;98506.84;;;8.05;73.84
74960;BME280;63518;49.572;1.106;2023-03-17T06:21:09;98486.97;;;7.94;73.20
74960;BME280;63518;49.572;1.106;2023-03-17T06:23:36;98526.63;;;7.83;74.43
74960;BME280;63518;49.572;1.106;2023-03-17T06:26:04;98545.03;;;7.82;74.32
74960;BME280;63518;49.572;1.106;2023-03-17T06:28:31;98525.16;;;7.90;73.91
74960;BME280;63518;49.572;1.106;2023-03-17T06:30:58;98531.84;;;8.03;72.82
74960;BME280;63518;49.572;1.106;2023-03-17T06:33:25;98555.19;;;8.00;73.55
74960;BME280;63518;49.572;1.106;2023-03-17T06:35:52;98582.06;;;7.80;75.57
74960;BME280;63518;49.572;1.106;2023-03-17T06:38:19;98573.84;;;8.22;73.88
74960;BME280;63518;49.572;1.106;2023-03-17T06:40:46;98561.00;;;8.74;71.84
74960;BME280;63518;49.572;1.106;2023-03-17T06:43:13;98523.28;;;8.61;71.23
74960;BME280;63518;49.572;1.106;2023-03-17T06:45:40;98546.59;;;8.07;74.58
74960;BME280;63518;49.572;1.106;2023-03-17T06:48:07;98570.69;;;7.91;74.69
74960;BME280;63518;49.572;1.106;2023-03-17T06:50:35;98578.44;;;8.27;75.66
74960;BME280;63518;49.572;1.106;2023-03-17T06:53:02;98578.44;;;8.65;74.15
74960;BME280;63518;49.572;1.106;2023-03-17T06:55:29;98574.41;;;8.57;72.16
74960;BME280;63518;49.572;1.106;2023-03-17T06:57:57;98582.66;;;8.19;75.20
74960;BME280;63518;49.572;1.106;2023-03-17T07:00:25;98618.94;;;8.35;73.74
74960;BME280;63518;49.572;1.106;2023-03-17T07:02:53;98630.72;;;8.78;73.17
74960;BME280;63518;49.572;1.106;2023-03-17T07:05:20;98619.34;;;8.47;74.98
74960;BME280;63518;49.572;1.106;2023-03-17T07:07:47;98632.16;;;8.33;74.83
74960;BME280;63518;49.572;1.106;2023-03-17T07:10:16;98633.84;;;8.29;76.30
74960;BME280;63518;49.572;1.106;2023-03-17T07:12:43;98636.16;;;8.60;74.61
74960;BME280;63518;49.572;1.106;2023-03-17T07:15:11;98642.19;;;8.43;75.68
74960;BME280;63518;49.572;1.106;2023-03-17T07:17:38;98625.50;;;8.39;75.54
74960;BME280;63518;49.572;1.106;2023-03-17T07:20:05;98630.69;;;8.60;75.36
74960;BME280;63518;49.572;1.106;2023-03-17T07:22:32;98610.94;;;8.57;75.57
74960;BME280;63518;49.572;1.106;2023-03-17T07:24:59;98605.16;;;8.59;74.33
74960;BME280;63518;49.572;1.106;2023-03-17T07:27:26;98602.19;;;8.93;75.20
74960;BME280;63518;49.572;1.106;2023-03-17T07:29:53;98598.41;;;8.89;74.92
74960;BME280;63518;49.572;1.106;2023-03-17T07:32:20;98622.81;;;8.72;76.68
74960;BME280;63518;49.572;1.106;2023-03-17T07:34:47;98657.19;;;8.50;76.12
74960;BME280;63518;49.572;1.106;2023-03-17T07:37:14;98668.59;;;8.39;78.23
74960;BME280;63518;49.572;1.106;2023-03-17T07:39:41;98659.59;;;8.33;76.96
74960;BME280;63518;49.572;1.106;2023-03-17T07:42:09;98634.31;;;8.55;77.20
74960;BME280;63518;49.572;1.106;2023-03-17T07:44:37;98621.25;;;8.66;78.00
74960;BME280;63518;49.572;1.106;2023-03-17T07:47:08;98649.13;;;8.78;76.75
74960;BME280;63518;49.572;1.106;2023-03-17T07:49:36;98623.50;;;9.01;75.97
74960;BME280;63518;49.572;1.106;2023-03-17T07:52:09;98576.34;;;8.94;75.66
74960;BME280;63518;49.572;1.106;2023-03-17T07:54:36;98603.28;;;8.92;75.08
74960;BME280;63518;49.572;1.106;2023-03-17T07:57:04;98584.19;;;9.61;74.13
74960;BME280;63518;49.572;1.106;2023-03-17T07:59:31;98592.78;;;9.13;75.59
74960;BME280;63518;49.572;1.106;2023-03-17T08:01:58;98597.78;;;8.92;76.57
74960;BME280;63518;49.572;1.106;2023-03-17T08:04:27;98619.69;;;8.97;76.23
74960;BME280;63518;49.572;1.106;2023-03-17T08:06:55;98604.22;;;9.48;75.53
74960;BME280;63518;49.572;1.106;2023-03-17T08:09:23;98598.03;;;9.56;73.99
74960;BME280;63518;49.572;1.106;2023-03-17T08:11:50;98599.09;;;9.74;73.39
74960;BME280;63518;49.572;1.106;2023-03-17T08:14:17;98591.44;;;10.12;72.13
74960;BME280;63518;49.572;1.106;2023-03-17T08:16:44;98572.69;;;9.59;74.27
74960;BME280;63518;49.572;1.106;2023-03-17T08:19:11;98584.72;;;9.77;72.81
74960;BME280;63518;49.572;1.106;2023-03-17T08:21:38;98587.75;;;9.61;73.97
74960;BME280;63518;49.572;1.106;2023-03-17T08:24:05;98583.19;;;9.84;73.94
74960;BME280;63518;49.572;1.106;2023-03-17T08:26:33;98573.09;;;9.52;74.26
74960;BME280;63518;49.572;1.106;2023-03-17T08:29:00;98571.66;;;9.82;72.64
74960;BME280;63518;49.572;1.106;2023-03-17T08:31:27;98559.94;;;9.49;74.22
74960;BME280;63518;49.572;1.106;2023-03-17T08:33:54;98576.44;;;9.63;73.30
74960;BME280;63518;49.572;1.106;2023-03-17T08:36:23;98588.06;;;10.01;74.11
74960;BME280;63518;49.572;1.106;2023-03-17T08:38:50;98586.19;;;10.24;72.34
74960;BME280;63518;49.572;1.106;2023-03-17T08:41:20;98582.97;;;10.58;71.26
74960;BME280;63518;49.572;1.106;2023-03-17T08:43:48;98575.00;;;9.93;73.74
74960;BME280;63518;49.572;1.106;2023-03-17T08:48:46;98580.31;;;10.31;72.42
74960;BME280;63518;49.572;1.106;2023-03-17T08:51:14;98580.94;;;10.50;72.03
74960;BME280;63518;49.572;1.106;2023-03-17T08:53:44;98573.44;;;10.42;72.76
74960;BME280;63518;49.572;1.106;2023-03-17T08:56:12;98577.00;;;10.42;72.94
74960;BME280;63518;49.572;1.106;2023-03-17T08:58:40;98595.47;;;10.42;73.13
74960;BME280;63518;49.572;1.106;2023-03-17T09:01:08;98581.81;;;10.37;72.58
74960;BME280;63518;49.572;1.106;2023-03-17T09:03:37;98590.09;;;10.37;72.88
74960;BME280;63518;49.572;1.106;2023-03-17T09:06:06;98589.69;;;10.88;71.96
74960;BME280;63518;49.572;1.106;2023-03-17T09:08:34;98591.91;;;10.41;74.20
74960;BME280;63518;49.572;1.106;2023-03-17T09:11:07;98590.28;;;10.76;72.77
74960;BME280;63518;49.572;1.106;2023-03-17T09:13:35;98576.00;;;10.74;73.05
74960;BME280;63518;49.572;1.106;2023-03-17T09:16:05;98582.19;;;10.80;72.79
74960;BME280;63518;49.572;1.106;2023-03-17T09:18:34;98588.34;;;11.22;71.26
74960;BME280;63518;49.572;1.106;2023-03-17T09:21:01;98607.91;;;11.43;70.10
74960;BME280;63518;49.572;1.106;2023-03-17T09:23:29;98603.28;;;11.29;70.17
74960;BME280;63518;49.572;1.106;2023-03-17T09:25:57;98598.66;;;11.39;70.23
74960;BME280;63518;49.572;1.106;2023-03-17T09:28:24;98586.72;;;11.60;68.54
74960;BME280;63518;49.572;1.106;2023-03-17T09:30:51;98600.19;;;11.53;68.27
74960;BME280;63518;49.572;1.106;2023-03-17T09:33:18;98608.59;;;11.71;67.24
74960;BME280;63518;49.572;1.106;2023-03-17T09:35:45;98613.31;;;11.48;68.40
74960;BME280;63518;49.572;1.106;2023-03-17T09:38:13;98604.00;;;12.06;65.72
74960;BME280;63518;49.572;1.106;2023-03-17T09:40:47;98614.44;;;12.17;65.21
74960;BME280;63518;49.572;1.106;2023-03-17T09:43:52;98621.16;;;12.42;64.49
74960;BME280;63518;49.572;1.106;2023-03-17T09:49:12;98602.19;;;12.01;65.89
74960;BME280;63518;49.572;1.106;2023-03-17T09:51:42;98596.63;;;12.67;61.95
74960;BME280;63518;49.572;1.106;2023-03-17T09:54:25;98599.81;;;12.17;63.99
74960;BME280;63518;49.572;1.106;2023-03-17T09:59:45;98607.53;;;12.81;61.72
74960;BME280;63518;49.572;1.106;2023-03-17T10:02:28;98609.44;;;12.37;63.80
74960;BME280;63518;49.572;1.106;2023-03-17T10:04:56;98582.81;;;12.67;63.43
74960;BME280;63518;49.572;1.106;2023-03-17T10:07:32;98574.66;;;12.70;61.73
74960;BME280;63518;49.572;1.106;2023-03-17T10:10:04;98568.50;;;12.56;63.20
74960;BME280;63518;49.572;1.106;2023-03-17T10:12:45;98580.56;;;13.04;61.29
74960;BME280;63518;49.572;1.106;2023-03-17T10:17:46;98593.72;;;13.07;62.48
74960;BME280;63518;49.572;1.106;2023-03-17T10:20:17;98577.28;;;13.01;61.05
74960;BME280;63518;49.572;1.106;2023-03-17T10:23:00;98587.38;;;13.06;60.96
74960;BME280;63518;49.572;1.106;2023-03-17T10:25:31;98577.50;;;13.52;58.90
74960;BME280;63518;49.572;1.106;2023-03-17T10:28:09;98576.72;;;13.34;61.01
74960;BME280;63518;49.572;1.106;2023-03-17T10:30:41;98574.28;;;13.41;61.02
74960;BME280;63518;49.572;1.106;2023-03-17T10:33:09;98592.31;;;13.94;58.41
74960;BME280;63518;49.572;1.106;2023-03-17T10:35:37;98599.41;;;13.74;59.25
74960;BME280;63518;49.572;1.106;2023-03-17T10:38:15;98598.31;;;13.58;61.02
74960;BME280;63518;49.572;1.106;2023-03-17T10:40:45;98595.72;;;13.62;59.16
74960;BME280;63518;49.572;1.106;2023-03-17T10:43:19;98609.09;;;13.60;60.15
74960;BME280;63518;49.572;1.106;2023-03-17T10:46:01;98606.69;;;14.26;56.93
74960;BME280;63518;49.572;1.106;2023-03-17T10:48:34;98599.22;;;14.47;56.70
74960;BME280;63518;49.572;1.106;2023-03-17T10:51:07;98595.38;;;14.39;56.89
74960;BME280;63518;49.572;1.106;2023-03-17T10:53:39;98587.84;;;13.72;58.58
74960;BME280;63518;49.572;1.106;2023-03-17T10:56:25;98591.84;;;13.92;58.78
74960;BME280;63518;49.572;1.106;2023-03-17T10:58:53;98600.59;;;14.03;57.23
74960;BME280;63518;49.572;1.106;2023-03-17T11:01:44;98597.81;;;14.11;57.75
74960;BME280;63518;49.572;1.106;2023-03-17T11:04:38;98611.47;;;14.17;56.98
74960;BME280;63518;49.572;1.106;2023-03-17T11:09:40;98610.72;;;13.90;58.31
74960;BME280;63518;49.572;1.106;2023-03-17T11:12:24;98575.38;;;13.49;58.45
74960;BME280;63518;49.572;1.106;2023-03-17T11:14:59;98601.69;;;14.10;57.24
74960;BME280;63518;49.572;1.106;2023-03-17T11:17:41;98591.81;;;14.01;58.32
74960;BME280;63518;49.572;1.106;2023-03-17T11:22:52;98574.78;;;13.43;58.43
74960;BME280;63518;49.572;1.106;2023-03-17T11:25:22;98579.22;;;13.65;55.90
74960;BME280;63518;49.572;1.106;2023-03-17T11:28:12;98581.81;;;14.08;56.46
74960;BME280;63518;49.572;1.106;2023-03-17T11:36:46;98573.84;;;15.20;51.64
74960;BME280;63518;49.572;1.106;2023-03-17T11:39:25;98572.47;;;15.84;50.99
74960;BME280;63518;49.572;1.106;2023-03-17T11:53:38;98583.34;;;17.90;48.81
74960;BME280;63518;49.572;1.106;2023-03-17T11:56:27;98578.47;;;17.55;49.87
74960;BME280;63518;49.572;1.106;2023-03-17T11:59:01;98581.28;;;16.87;50.03
74960;BME280;63518;49.572;1.106;2023-03-17T12:02:09;98593.13;;;17.68;47.38
74960;BME280;63518;49.572;1.106;2023-03-17T12:04:53;98587.50;;;17.36;47.99
74960;BME280;63518;49.572;1.106;2023-03-17T12:07:48;98588.31;;;16.69;51.45
74960;BME280;63518;49.572;1.106;2023-03-17T12:10:24;98592.94;;;17.17;50.89
74960;BME280;63518;49.572;1.106;2023-03-17T12:15:46;98601.19;;;17.57;48.83
74960;BME280;63518;49.572;1.106;2023-03-17T12:21:14;98598.22;;;16.82;50.01
74960;BME280;63518;49.572;1.106;2023-03-17T12:23:47;98616.13;;;17.09;47.01
74960;BME280;63518;49.572;1.106;2023-03-17T12:29:12;98606.66;;;17.54;48.04
74960;BME280;63518;49.572;1.106;2023-03-17T12:31:51;98602.09;;;17.61;48.04
74960;BME280;63518;49.572;1.106;2023-03-17T12:34:26;98625.53;;;16.64;48.02
74960;BME280;63518;49.572;1.106;2023-03-17T12:36:56;98612.25;;;16.85;49.83
74960;BME280;63518;49.572;1.106;2023-03-17T12:39:31;98626.22;;;16.49;51.31
74960;BME280;63518;49.572;1.106;2023-03-17T12:42:03;98632.09;;;15.74;51.89
74960;BME280;63518;49.572;1.106;2023-03-17T12:47:38;98617.88;;;16.12;51.88
74960;BME280;63518;49.572;1.106;2023-03-17T12:50:17;98608.50;;;16.17;51.44
74960;BME280;63518;49.572;1.106;2023-03-17T12:55:30;98609.66;;;16.16;50.69
74960;BME280;63518;49.572;1.106;2023-03-17T12:58:05;98605.81;;;16.08;52.62
74960;BME280;63518;49.572;1.106;2023-03-17T13:00:47;98608.31;;;16.22;52.40
74960;BME280;63518;49.572;1.106;2023-03-17T13:03:23;98618.69;;;16.49;52.27
74960;BME280;63518;49.572;1.106;2023-03-17T13:05:57;98603.47;;;16.83;51.63
74960;BME280;63518;49.572;1.106;2023-03-17T13:08:34;98619.06;;;15.53;50.16
74960;BME280;63518;49.572;1.106;2023-03-17T13:19:59;98608.00;;;15.66;52.35
74960;BME280;63518;49.572;1.106;2023-03-17T13:22:42;98600.53;;;16.40;51.40
74960;BME280;63518;49.572;1.106;2023-03-17T13:25:55;98603.53;;;16.34;52.01
74960;BME280;63518;49.572;1.106;2023-03-17T13:28:24;98592.88;;;16.12;54.14
74960;BME280;63518;49.572;1.106;2023-03-17T13:34:01;98565.44;;;16.23;52.80
74960;BME280;63518;49.572;1.106;2023-03-17T13:45:12;98586.50;;;16.36;52.24
74960;BME280;63518;49.572;1.106;2023-03-17T13:47:42;98574.69;;;16.27;52.92
74960;BME280;63518;49.572;1.106;2023-03-17T13:50:15;98591.47;;;16.55;49.75
74960;BME280;63518;49.572;1.106;2023-03-17T13:52:48;98589.03;;;16.41;52.79
74960;BME280;63518;49.572;1.106;2023-03-17T13:57:54;98585.88;;;17.35;50.49
74960;BME280;63518;49.572;1.106;2023-03-17T14:00:43;98597.25;;;17.02;52.04
74960;BME280;63518;49.572;1.106;2023-03-17T14:03:22;98590.97;;;17.17;49.35
74960;BME280;63518;49.572;1.106;2023-03-17T14:05:54;98585.59;;;17.25;49.98
74960;BME280;63518;49.572;1.106;2023-03-17T14:08:31;98589.16;;;17.69;48.18
74960;BME280;63518;49.572;1.106;2023-03-17T14:11:03;98582.09;;;18.19;47.31
74960;BME280;63518;49.572;1.106;2023-03-17T14:16:28;98585.41;;;18.09;48.00
74960;BME280;63518;49.572;1.106;2023-03-17T14:19:07;98582.69;;;17.96;49.55
74960;BME280;63518;49.572;1.106;2023-03-17T14:21:36;98580.81;;;18.00;48.44
74960;BME280;63518;49.572;1.106;2023-03-17T14:24:22;98596.38;;;18.68;47.89
74960;BME280;63518;49.572;1.106;2023-03-17T14:26:51;98587.16;;;16.70;48.45
74960;BME280;63518;49.572;1.106;2023-03-17T14:29:21;98608.28;;;19.81;44.03
74960;BME280;63518;49.572;1.106;2023-03-17T14:31:59;98608.59;;;17.81;48.83
74960;BME280;63518;49.572;1.106;2023-03-17T14:34:27;98609.38;;;17.22;48.44
74960;BME280;63518;49.572;1.106;2023-03-17T14:37:02;98610.66;;;18.00;46.78
74960;BME280;63518;49.572;1.106;2023-03-17T14:39:30;98618.78;;;17.05;48.17